Terminal Aerodrome Forecast
Issued by NWS Shreveport, LA

Home | Current Version | Previous Version | Text Only | Print | Product List | Glossary On
Versions: 1 2 3 4 5 6 7 8 9 10 11 12 13 14 15 16 17
000
FTUS44 KSHV 010541
TAFTYR
TAF
KTYR 010541Z 0106/0206 20009KT P6SM SCT250
     FM010900 20009KT P6SM SCT015 SCT250
      TEMPO 0109/0113 BKN015
     FM011300 20010KT P6SM BKN015
     FM011600 20012G20KT P6SM SCT025 SCT250
     FM011800 20012G20KT P6SM SCT045 SCT250
     FM020000 17006KT P6SM SCT250=

USA.gov is the U.S. government's official web portal to all federal, state and local government web resources and services.